createdAt,value
2023-02-24T00:02:06.421Z,4.17
2023-02-24T00:04:40.072Z,3.98
2023-02-24T00:07:13.253Z,4.11
2023-02-24T00:09:41.429Z,4.08
2023-02-24T00:12:15.858Z,4.17
2023-02-24T00:14:46.216Z,4.14
2023-02-24T00:17:14.915Z,4.18
2023-02-24T00:19:43.533Z,4.20
2023-02-24T00:22:11.731Z,4.19
2023-02-24T00:24:40.278Z,4.20
2023-02-24T00:27:11.818Z,3.83
2023-02-24T00:29:42.133Z,4.22
2023-02-24T00:32:13.729Z,4.21
2023-02-24T00:34:43.465Z,4.19
2023-02-24T00:37:12.246Z,4.10
2023-02-24T00:39:42.090Z,3.87
2023-02-24T00:42:12.260Z,4.24
2023-02-24T00:44:46.536Z,3.71
2023-02-24T00:47:17.678Z,4.20
2023-02-24T00:49:46.105Z,4.19
2023-02-24T00:52:20.835Z,4.23
2023-02-24T00:54:50.885Z,4.25
2023-02-24T00:57:21.522Z,3.24
2023-02-24T00:59:52.414Z,4.24
2023-02-24T01:02:21.515Z,3.96
2023-02-24T01:04:51.227Z,4.03
2023-02-24T01:07:19.350Z,4.18
2023-02-24T01:09:51.191Z,4.25
2023-02-24T01:12:22.528Z,4.25
2023-02-24T01:14:53.163Z,4.16
2023-02-24T01:17:22.977Z,3.37
2023-02-24T01:19:52.225Z,3.89
2023-02-24T01:22:21.897Z,4.28
2023-02-24T01:24:50.124Z,4.04
2023-02-24T01:27:19.670Z,4.32
2023-02-24T01:29:48.752Z,4.21
2023-02-24T01:32:20.928Z,4.11
2023-02-24T01:34:52.765Z,4.25
2023-02-24T01:37:21.724Z,4.20
2023-02-24T01:39:50.420Z,4.28
2023-02-24T01:42:22.218Z,4.22
2023-02-24T01:44:52.386Z,4.20
2023-02-24T01:47:23.060Z,4.26
2023-02-24T01:49:54.954Z,4.28
2023-02-24T01:52:30.849Z,4.30
2023-02-24T01:55:09.380Z,4.32
2023-02-24T01:57:39.604Z,3.97
2023-02-24T02:00:12.677Z,4.26
2023-02-24T02:02:50.736Z,4.24
2023-02-24T02:05:19.419Z,4.31
2023-02-24T02:07:47.450Z,4.24
2023-02-24T02:10:15.556Z,4.07
2023-02-24T02:12:45.113Z,4.30
2023-02-24T02:15:20.415Z,4.29
2023-02-24T02:18:24.664Z,4.02
2023-02-24T02:21:36.903Z,4.35
2023-02-24T02:24:34.454Z,4.36
2023-02-24T02:27:29.546Z,4.49
2023-02-24T02:30:06.363Z,4.55
2023-02-24T02:33:31.650Z,4.59
2023-02-24T02:36:22.869Z,4.78
2023-02-24T02:39:03.348Z,4.92
2023-02-24T02:42:14.423Z,4.88
2023-02-24T02:45:23.157Z,5.02
2023-02-24T02:48:31.477Z,5.09
2023-02-24T02:51:11.366Z,5.09
2023-02-24T02:54:15.939Z,4.99
2023-02-24T02:56:53.816Z,5.11
2023-02-24T02:59:29.943Z,5.11
2023-02-24T03:02:11.859Z,5.11
2023-02-24T03:04:54.780Z,5.18
2023-02-24T03:07:31.123Z,5.20
2023-02-24T03:10:11.010Z,5.01
2023-02-24T03:12:41.405Z,5.28
2023-02-24T03:15:13.130Z,5.27
2023-02-24T03:17:45.475Z,5.37
2023-02-24T03:20:36.065Z,5.36
2023-02-24T03:23:16.841Z,5.35
2023-02-24T03:26:00.464Z,5.36
2023-02-24T03:28:39.230Z,5.38
2023-02-24T03:31:23.144Z,5.48
2023-02-24T03:34:06.809Z,5.20
2023-02-24T03:36:35.801Z,5.41
2023-02-24T03:39:11.345Z,5.33
2023-02-24T03:42:01.376Z,5.36
2023-02-24T03:44:32.339Z,5.39
2023-02-24T03:47:02.424Z,5.22
2023-02-24T03:49:30.502Z,5.09
2023-02-24T03:52:39.316Z,5.19
2023-02-24T03:55:40.545Z,5.40
2023-02-24T03:58:23.526Z,5.05
2023-02-24T04:01:20.021Z,5.32
2023-02-24T04:04:10.097Z,5.39
2023-02-24T04:07:15.070Z,5.14
2023-02-24T04:10:11.030Z,5.43
2023-02-24T04:12:53.924Z,5.20
2023-02-24T04:15:44.108Z,5.25
2023-02-24T04:18:22.661Z,5.14
2023-02-24T04:20:53.524Z,5.19
2023-02-24T04:23:31.880Z,5.45
2023-02-24T04:26:01.969Z,5.45
2023-02-24T04:28:31.435Z,5.24
2023-02-24T04:31:10.745Z,5.48
2023-02-24T04:33:40.748Z,5.55
2023-02-24T04:36:13.066Z,5.58
2023-02-24T04:38:41.361Z,5.32
2023-02-24T04:41:10.491Z,5.53
2023-02-24T04:43:38.663Z,5.57
2023-02-24T04:46:08.209Z,5.58
2023-02-24T04:48:36.592Z,5.63
2023-02-24T04:51:06.753Z,5.64
2023-02-24T04:53:34.714Z,5.65
2023-02-24T04:56:09.409Z,5.48
2023-02-24T04:58:41.620Z,5.62
2023-02-24T05:01:11.218Z,5.67
2023-02-24T05:03:42.892Z,5.58
2023-02-24T05:06:16.325Z,4.93
2023-02-24T05:08:45.101Z,5.72
2023-02-24T05:11:18.974Z,5.66
2023-02-24T05:13:47.329Z,5.66
2023-02-24T05:16:20.656Z,5.71
2023-02-24T05:18:48.977Z,5.51
2023-02-24T05:21:36.585Z,5.76
2023-02-24T05:24:07.124Z,5.55
2023-02-24T05:26:41.993Z,5.65
2023-02-24T05:29:12.616Z,5.79
2023-02-24T05:31:40.741Z,5.81
2023-02-24T05:34:09.136Z,5.80
2023-02-24T05:36:41.288Z,5.78
2023-02-24T05:39:12.652Z,5.77
2023-02-24T05:41:43.088Z,5.45
2023-02-24T05:44:17.301Z,5.79
2023-02-24T05:46:47.211Z,5.67
2023-02-24T05:49:27.459Z,5.43
2023-02-24T05:52:05.748Z,5.79
2023-02-24T05:54:45.558Z,5.80
2023-02-24T05:57:19.163Z,5.57
2023-02-24T05:59:56.196Z,5.68
2023-02-24T06:02:37.533Z,5.48
2023-02-24T06:05:09.084Z,5.14
2023-02-24T06:07:38.744Z,5.72
2023-02-24T06:10:10.672Z,5.55
2023-02-24T06:12:40.068Z,5.77
2023-02-24T06:15:08.795Z,5.81
2023-02-24T06:17:37.279Z,5.87
2023-02-24T06:20:15.129Z,5.84
2023-02-24T06:22:43.376Z,5.06
2023-02-24T06:25:12.150Z,5.93
2023-02-24T06:27:40.724Z,6.01
2023-02-24T06:30:10.677Z,5.76
2023-02-24T06:32:39.071Z,5.80
2023-02-24T06:35:08.758Z,6.13
2023-02-24T06:37:37.388Z,6.14
2023-02-24T06:40:16.098Z,6.04
2023-02-24T06:42:51.152Z,6.26
2023-02-24T06:45:19.263Z,6.23
2023-02-24T06:47:49.037Z,5.98
2023-02-24T06:50:20.427Z,6.27
2023-02-24T06:52:49.920Z,6.01
2023-02-24T06:55:25.664Z,6.27
2023-02-24T06:57:59.665Z,6.34
2023-02-24T07:00:42.906Z,6.35
2023-02-24T07:03:16.685Z,6.30
2023-02-24T07:05:54.599Z,6.36
2023-02-24T07:08:27.405Z,6.17
2023-02-24T07:11:00.062Z,6.19
2023-02-24T07:13:30.028Z,6.41
2023-02-24T07:16:07.390Z,6.22
2023-02-24T07:18:37.206Z,6.48
2023-02-24T07:21:11.649Z,6.40
2023-02-24T07:23:41.830Z,6.45
2023-02-24T07:26:19.569Z,5.65
2023-02-24T07:28:48.209Z,6.52
2023-02-24T07:31:21.579Z,6.55
2023-02-24T07:33:54.095Z,6.48
2023-02-24T07:36:30.446Z,6.62
2023-02-24T07:38:59.560Z,6.42
2023-02-24T07:41:30.449Z,6.41
2023-02-24T07:44:00.126Z,6.57
2023-02-24T07:46:29.518Z,6.36
2023-02-24T07:49:00.024Z,6.35
2023-02-24T07:51:29.952Z,6.58
2023-02-24T07:54:01.490Z,6.64
2023-02-24T07:56:33.191Z,6.63
2023-02-24T07:59:08.139Z,6.36
2023-02-24T08:01:42.332Z,6.66
2023-02-24T08:04:12.823Z,6.62
2023-02-24T08:06:47.932Z,6.68
2023-02-24T08:09:21.135Z,6.66
2023-02-24T08:11:55.865Z,6.46
2023-02-24T08:14:32.868Z,6.52
2023-02-24T08:17:07.131Z,6.81
2023-02-24T08:19:47.179Z,6.81
2023-02-24T08:22:24.517Z,6.82
2023-02-24T08:25:06.034Z,6.52
2023-02-24T08:27:43.550Z,6.44
2023-02-24T08:30:30.001Z,6.66
2023-02-24T08:33:00.109Z,6.82
2023-02-24T08:35:37.790Z,6.84
2023-02-24T08:38:18.959Z,6.83
2023-02-24T08:40:51.618Z,6.82
2023-02-24T08:43:33.313Z,6.81
2023-02-24T08:46:13.848Z,6.83
2023-02-24T08:48:47.954Z,6.85
2023-02-24T08:51:28.950Z,6.87
2023-02-24T08:54:01.285Z,6.66
2023-02-24T08:56:36.767Z,6.88
2023-02-24T08:59:07.014Z,6.83
2023-02-24T09:02:03.697Z,6.81
2023-02-24T09:04:34.893Z,6.81
2023-02-24T09:07:12.118Z,6.79
2023-02-24T09:09:42.701Z,6.87
2023-02-24T09:12:24.849Z,6.87
2023-02-24T09:15:04.994Z,6.84
2023-02-24T09:17:45.982Z,6.83
2023-02-24T09:20:41.965Z,6.80
2023-02-24T09:23:20.384Z,6.49
2023-02-24T09:25:54.690Z,6.53
2023-02-24T09:28:27.951Z,6.12
2023-02-24T09:30:59.222Z,6.50
2023-02-24T09:33:42.046Z,6.78
2023-02-24T09:36:30.559Z,6.81
2023-02-24T09:39:00.860Z,5.87
2023-02-24T09:41:54.867Z,6.83
2023-02-24T09:44:44.586Z,6.80
2023-02-24T09:47:57.436Z,6.78
2023-02-24T09:51:03.425Z,6.64
2023-02-24T09:53:49.748Z,6.38
2023-02-24T09:56:24.911Z,6.67
2023-02-24T09:59:13.017Z,6.74
2023-02-24T10:02:31.398Z,6.67
2023-02-24T10:05:28.788Z,6.36
2023-02-24T10:07:58.641Z,6.30
2023-02-24T10:10:36.082Z,6.56
2023-02-24T10:13:30.663Z,6.31
2023-02-24T10:16:07.329Z,6.47
2023-02-24T10:19:15.539Z,6.53
2023-02-24T10:22:03.517Z,6.46
2023-02-24T10:24:38.018Z,6.46
2023-02-24T10:27:16.821Z,6.38
2023-02-24T10:30:20.093Z,6.30
2023-02-24T10:32:59.114Z,6.29
2023-02-24T10:35:39.394Z,6.29
2023-02-24T10:38:07.597Z,6.31
2023-02-24T10:40:56.762Z,6.28
2023-02-24T10:43:30.714Z,5.91
2023-02-24T10:46:17.532Z,6.23
2023-02-24T10:49:01.681Z,6.23
2023-02-24T10:51:42.569Z,6.20
2023-02-24T10:54:45.367Z,6.22
2023-02-24T10:57:18.888Z,6.16
2023-02-24T11:00:18.845Z,5.89
2023-02-24T11:03:08.539Z,6.13
2023-02-24T11:06:04.408Z,5.97
2023-02-24T11:08:48.030Z,6.19
2023-02-24T11:11:29.995Z,6.04
2023-02-24T11:14:20.586Z,6.23
2023-02-24T11:17:14.874Z,6.16
2023-02-24T11:20:11.096Z,5.94
2023-02-24T11:22:46.174Z,6.00
2023-02-24T11:25:36.253Z,6.12
2023-02-24T11:28:06.227Z,6.23
2023-02-24T11:30:52.990Z,6.24
2023-02-24T11:33:42.801Z,6.22
2023-02-24T11:36:37.407Z,6.28
2023-02-24T11:39:37.546Z,6.25
2023-02-24T11:42:15.331Z,6.31
2023-02-24T11:45:03.461Z,6.34
2023-02-24T11:47:52.102Z,5.97
2023-02-24T11:51:02.352Z,6.35
2023-02-24T11:53:57.914Z,6.33
2023-02-24T11:56:33.839Z,6.26
2023-02-24T11:59:30.820Z,6.28
2023-02-24T12:02:39.027Z,6.27
2023-02-24T12:05:25.776Z,6.26
2023-02-24T12:08:06.129Z,6.01
2023-02-24T12:11:23.461Z,6.29
2023-02-24T12:14:03.256Z,5.98
2023-02-24T12:16:37.918Z,6.28
2023-02-24T12:19:21.163Z,6.24
2023-02-24T12:22:00.115Z,5.95
2023-02-24T12:24:28.336Z,6.23
2023-02-24T12:27:39.632Z,6.26
2023-02-24T12:30:34.259Z,6.27
2023-02-24T12:33:31.122Z,6.32
2023-02-24T12:36:14.738Z,6.34
2023-02-24T12:39:21.553Z,6.14
2023-02-24T12:42:21.014Z,6.36
2023-02-24T12:45:27.120Z,6.33
2023-02-24T12:48:24.660Z,6.32
2023-02-24T12:51:14.476Z,6.27
2023-02-24T12:54:05.731Z,6.33
2023-02-24T12:56:58.248Z,6.19
2023-02-24T12:59:32.326Z,6.35
2023-02-24T13:02:25.283Z,6.43
2023-02-24T13:05:45.310Z,6.43
2023-02-24T13:08:37.634Z,6.40
2023-02-24T13:11:28.311Z,6.42
2023-02-24T13:14:05.726Z,6.45
2023-02-24T13:16:36.695Z,6.39
2023-02-24T13:19:28.593Z,6.11
2023-02-24T13:22:31.108Z,6.47
2023-02-24T13:25:08.313Z,6.48
2023-02-24T13:27:43.356Z,6.53
2023-02-24T13:30:27.097Z,6.50
2023-02-24T13:33:04.872Z,6.47
2023-02-24T13:35:37.061Z,6.46
2023-02-24T13:38:22.383Z,6.18
2023-02-24T13:40:51.095Z,6.44
2023-02-24T13:43:29.374Z,6.48
2023-02-24T13:46:17.518Z,6.47
2023-02-24T13:49:13.698Z,6.03
2023-02-24T13:52:04.273Z,6.21
2023-02-24T13:55:19.994Z,6.43
2023-02-24T13:57:53.771Z,6.47
2023-02-24T14:00:46.075Z,6.45
2023-02-24T14:03:22.357Z,6.45
2023-02-24T14:05:52.947Z,6.24
2023-02-24T14:08:43.903Z,6.00
2023-02-24T14:11:17.125Z,6.50
2023-02-24T14:13:54.520Z,6.47
2023-02-24T14:16:33.425Z,6.45
2023-02-24T14:19:03.390Z,6.23
2023-02-24T14:21:34.340Z,6.56
2023-02-24T14:24:12.394Z,6.57
2023-02-24T14:26:54.957Z,6.31
2023-02-24T14:29:28.806Z,6.59
2023-02-24T14:32:03.787Z,6.61
2023-02-24T14:34:34.056Z,6.63
2023-02-24T14:37:04.402Z,6.67
2023-02-24T14:39:34.608Z,6.44
2023-02-24T14:42:09.726Z,6.67
2023-02-24T14:44:57.100Z,6.60
2023-02-24T14:47:29.013Z,6.45
2023-02-24T14:50:04.695Z,6.37
2023-02-24T14:52:44.132Z,6.45
2023-02-24T14:55:16.336Z,6.64
2023-02-24T14:58:06.394Z,6.61
2023-02-24T15:00:41.982Z,6.64
2023-02-24T15:03:13.530Z,6.66
2023-02-24T15:05:49.076Z,6.37
2023-02-24T15:08:36.986Z,6.35
2023-02-24T15:11:16.997Z,6.56
2023-02-24T15:13:50.567Z,6.63
2023-02-24T15:16:41.906Z,6.63
2023-02-24T15:19:45.967Z,6.63
2023-02-24T15:22:28.654Z,6.60
2023-02-24T15:25:28.171Z,6.57
2023-02-24T15:28:04.239Z,6.42
2023-02-24T15:30:55.822Z,6.36
2023-02-24T15:33:26.243Z,6.25
2023-02-24T15:36:00.173Z,6.41
2023-02-24T15:38:40.640Z,6.49
2023-02-24T15:41:11.449Z,6.31
2023-02-24T15:43:50.596Z,6.46
2023-02-24T15:46:37.545Z,6.45
2023-02-24T15:49:06.467Z,6.43
2023-02-24T15:51:46.392Z,6.34
2023-02-24T15:54:31.740Z,6.40
2023-02-24T15:57:02.898Z,6.39
2023-02-24T15:59:31.743Z,6.41
2023-02-24T16:01:59.935Z,6.25
2023-02-24T16:04:28.398Z,6.43
2023-02-24T16:06:58.305Z,6.45
2023-02-24T16:09:37.487Z,6.10
2023-02-24T16:12:13.571Z,6.35
2023-02-24T16:14:44.275Z,6.10
2023-02-24T16:17:41.780Z,6.11
2023-02-24T16:20:19.375Z,6.28
2023-02-24T16:22:48.250Z,6.30
2023-02-24T16:25:17.691Z,6.26
2023-02-24T16:27:46.767Z,6.24
2023-02-24T16:30:22.421Z,6.21
2023-02-24T16:32:51.609Z,6.19
2023-02-24T16:35:21.630Z,6.24
2023-02-24T16:37:50.611Z,6.25
2023-02-24T16:40:34.395Z,6.22
2023-02-24T16:43:03.607Z,5.97
2023-02-24T16:45:32.999Z,6.20
2023-02-24T16:48:05.542Z,6.17
2023-02-24T16:50:40.920Z,6.16
2023-02-24T16:53:17.848Z,6.13
2023-02-24T16:55:47.523Z,6.17
2023-02-24T16:58:17.712Z,5.42
2023-02-24T17:00:52.868Z,6.00
2023-02-24T17:03:27.253Z,6.06
2023-02-24T17:05:56.259Z,5.90
2023-02-24T17:08:24.691Z,6.07
2023-02-24T17:10:53.137Z,6.11
2023-02-24T17:13:22.912Z,5.84
2023-02-24T17:15:55.574Z,6.11
2023-02-24T17:18:25.932Z,6.13
2023-02-24T17:20:54.691Z,6.04
2023-02-24T17:23:22.826Z,6.14
2023-02-24T17:25:56.950Z,6.10
2023-02-24T17:28:26.153Z,6.03
2023-02-24T17:30:54.664Z,6.15
2023-02-24T17:33:23.072Z,6.19
2023-02-24T17:35:51.329Z,6.21
2023-02-24T17:38:22.560Z,6.18
2023-02-24T17:40:50.927Z,6.22
2023-02-24T17:43:19.385Z,6.20
2023-02-24T17:45:47.956Z,6.17
2023-02-24T17:48:16.885Z,6.11
2023-02-24T17:50:47.813Z,6.16
2023-02-24T17:53:16.460Z,6.02
2023-02-24T17:56:01.634Z,6.13
2023-02-24T17:58:31.752Z,6.13
2023-02-24T18:01:02.491Z,6.13
2023-02-24T18:03:32.212Z,6.11
2023-02-24T18:06:14.096Z,6.11
2023-02-24T18:08:42.627Z,5.95
2023-02-24T18:11:17.319Z,5.80
2023-02-24T18:13:46.156Z,5.91
2023-02-24T18:16:16.644Z,6.02
2023-02-24T18:18:45.010Z,5.77
2023-02-24T18:21:13.443Z,5.93
2023-02-24T18:23:42.349Z,5.98
2023-02-24T18:26:14.669Z,5.95
2023-02-24T18:28:43.936Z,5.93
2023-02-24T18:31:23.252Z,5.98
2023-02-24T18:33:52.521Z,5.92
2023-02-24T18:36:21.239Z,5.92
2023-02-24T18:38:50.946Z,5.79
2023-02-24T18:41:24.229Z,5.68
2023-02-24T18:43:57.651Z,5.78
2023-02-24T18:46:27.420Z,5.75
2023-02-24T18:48:58.789Z,5.84
2023-02-24T18:51:29.364Z,5.83
2023-02-24T18:54:00.782Z,5.84
2023-02-24T18:56:32.496Z,5.82
2023-02-24T18:59:02.544Z,5.80
2023-02-24T19:01:38.833Z,5.57
2023-02-24T19:04:09.164Z,5.85
2023-02-24T19:06:38.494Z,5.85
2023-02-24T19:09:11.507Z,5.81
2023-02-24T19:11:46.497Z,5.82
2023-02-24T19:14:27.003Z,5.76
2023-02-24T19:16:56.291Z,5.71
2023-02-24T19:19:25.827Z,5.80
2023-02-24T19:21:54.179Z,5.80
2023-02-24T19:24:22.536Z,5.50
2023-02-24T19:26:53.677Z,5.47
2023-02-24T19:29:22.573Z,5.68
2023-02-24T19:31:55.109Z,5.63
2023-02-24T19:34:23.817Z,5.30
2023-02-24T19:36:52.877Z,5.28
2023-02-24T19:39:21.537Z,5.51
2023-02-24T19:41:50.609Z,5.36
2023-02-24T19:44:20.974Z,5.50
2023-02-24T19:46:49.948Z,5.46
2023-02-24T19:49:18.554Z,5.50
2023-02-24T19:51:48.311Z,5.55
2023-02-24T19:54:17.145Z,5.54
2023-02-24T19:56:45.406Z,5.37
2023-02-24T19:59:14.039Z,5.55
2023-02-24T20:01:44.172Z,5.28
2023-02-24T20:04:13.228Z,5.62
2023-02-24T20:06:44.022Z,5.59
2023-02-24T20:09:23.805Z,5.60
2023-02-24T20:11:52.963Z,5.60
2023-02-24T20:14:24.515Z,5.28
2023-02-24T20:16:52.995Z,5.57
2023-02-24T20:19:21.743Z,5.55
2023-02-24T20:21:50.168Z,5.58
2023-02-24T20:24:19.186Z,5.57
2023-02-24T20:26:50.046Z,5.21
2023-02-24T20:29:21.048Z,5.51
2023-02-24T20:31:50.101Z,5.57
2023-02-24T20:34:18.852Z,5.52
2023-02-24T20:36:47.804Z,5.51
2023-02-24T20:39:16.376Z,5.21
2023-02-24T20:41:45.775Z,5.13
2023-02-24T20:44:14.375Z,5.19
2023-02-24T20:46:42.726Z,5.05
2023-02-24T20:49:15.183Z,5.40
2023-02-24T20:51:44.103Z,5.38
2023-02-24T20:54:14.064Z,5.21
2023-02-24T20:56:44.647Z,5.23
2023-02-24T20:59:19.681Z,5.08
2023-02-24T21:01:49.828Z,5.36
2023-02-24T21:04:21.367Z,5.31
2023-02-24T21:06:51.733Z,5.37
2023-02-24T21:09:20.060Z,4.95
2023-02-24T21:11:48.509Z,5.10
2023-02-24T21:14:18.057Z,5.09
2023-02-24T21:16:46.508Z,5.34
2023-02-24T21:19:15.236Z,5.16
2023-02-24T21:21:43.797Z,5.13
2023-02-24T21:24:11.984Z,5.29
2023-02-24T21:26:41.698Z,5.32
2023-02-24T21:29:10.904Z,5.12
2023-02-24T21:31:39.429Z,5.32
2023-02-24T21:34:11.681Z,5.18
2023-02-24T21:36:43.782Z,5.30
2023-02-24T21:39:15.489Z,4.91
2023-02-24T21:41:44.719Z,4.26
2023-02-24T21:44:17.270Z,4.86
2023-02-24T21:46:46.010Z,4.78
2023-02-24T21:49:14.554Z,4.96
2023-02-24T21:51:43.122Z,4.86
2023-02-24T21:54:15.751Z,4.76
2023-02-24T21:56:44.636Z,4.60
2023-02-24T21:59:15.969Z,4.60
2023-02-24T22:01:46.414Z,4.62
2023-02-24T22:04:19.438Z,4.67
2023-02-24T22:06:48.600Z,4.65
2023-02-24T22:09:20.212Z,4.46
2023-02-24T22:11:49.881Z,4.72
2023-02-24T22:14:19.274Z,4.78
2023-02-24T22:16:48.432Z,4.79
2023-02-24T22:19:17.115Z,4.79
2023-02-24T22:21:46.362Z,4.76
2023-02-24T22:24:16.872Z,4.14
2023-02-24T22:26:45.740Z,4.76
2023-02-24T22:29:14.033Z,4.78
2023-02-24T22:31:48.383Z,4.77
2023-02-24T22:34:20.222Z,4.71
2023-02-24T22:37:43.716Z,4.74
2023-02-24T22:45:59.489Z,4.74
2023-02-24T22:53:26.106Z,4.57
2023-02-24T22:55:56.936Z,4.60
2023-02-24T22:58:25.766Z,4.62
2023-02-24T23:00:55.616Z,4.40
2023-02-24T23:03:28.722Z,4.66
2023-02-24T23:06:12.780Z,4.65
2023-02-24T23:08:44.085Z,4.32
2023-02-24T23:11:21.251Z,4.59
2023-02-24T23:13:51.471Z,4.36
2023-02-24T23:16:27.517Z,4.51
2023-02-24T23:18:58.787Z,4.64
2023-02-24T23:21:35.455Z,4.44
2023-02-24T23:24:05.702Z,4.62
2023-02-24T23:26:44.169Z,4.56
2023-02-24T23:29:15.571Z,4.31
2023-02-24T23:31:45.365Z,4.38
2023-02-24T23:34:14.664Z,4.48
2023-02-24T23:36:46.236Z,4.54
2023-02-24T23:39:18.212Z,4.68
2023-02-24T23:41:46.497Z,4.37
2023-02-24T23:44:14.626Z,4.83
2023-02-24T23:46:43.042Z,4.76
2023-02-24T23:49:11.603Z,4.80
2023-02-24T23:51:48.065Z,4.78
2023-02-24T23:54:20.586Z,4.52
2023-02-24T23:56:49.215Z,4.75
2023-02-24T23:59:17.326Z,4.60
